Terminal Aerodrome Forecast
Issued by NWS Cleveland, OH

Home | Current Version | Previous Version | Graphics & Text | Print | Product List | Glossary On
Versions: 1 2 3 4 5 6 7 8 9 10 11 12 13 14 15 16 17 18 19
002
FTUS41 KCLE 191245 AAA
TAFMFD
TAF AMD
KMFD 191245Z 1913/2012 16005KT P6SM SCT015 OVC050
      TEMPO 1914/1917 1SM -TSRA BKN008CB OVC025
     FM200000 18005KT P6SM BKN070
     FM200600 VRB03KT P6SM BKN030=

USA.gov is the U.S. government's official web portal to all federal, state and local government web resources and services.